sensor_id;sensor_type;location;lat;lon;timestamp;temperature;humidity
70151;DHT22;57517;43.562;19.540;2022-07-23T00:01:23;614.50;1484.80
70151;DHT22;57517;43.562;19.540;2022-07-23T00:03:49;589.50;1536.00
70151;DHT22;57517;43.562;19.540;2022-07-23T00:06:15;589.10;1561.60
70151;DHT22;57517;43.562;19.540;2022-07-23T00:08:41;589.40;1536.00
70151;DHT22;57517;43.562;19.540;2022-07-23T00:11:07;589.70;1510.40
70151;DHT22;57517;43.562;19.540;2022-07-23T00:13:33;589.70;1510.40
70151;DHT22;57517;43.562;19.540;2022-07-23T00:15:59;589.60;1536.00
70151;DHT22;57517;43.562;19.540;2022-07-23T00:18:25;589.60;1510.40
70151;DHT22;57517;43.562;19.540;2022-07-23T00:20:51;614.40;1510.40
70151;DHT22;57517;43.562;19.540;2022-07-23T00:23:17;589.50;1510.40
70151;DHT22;57517;43.562;19.540;2022-07-23T00:25:43;589.30;1561.60
70151;DHT22;57517;43.562;19.540;2022-07-23T00:28:11;589.30;1561.60
70151;DHT22;57517;43.562;19.540;2022-07-23T00:30:37;589.30;1561.60
70151;DHT22;57517;43.562;19.540;2022-07-23T00:33:05;589.50;1536.00
70151;DHT22;57517;43.562;19.540;2022-07-23T00:35:37;589.60;1536.00
70151;DHT22;57517;43.562;19.540;2022-07-23T00:38:04;589.50;1536.00
70151;DHT22;57517;43.562;19.540;2022-07-23T00:40:30;589.50;1536.00
70151;DHT22;57517;43.562;19.540;2022-07-23T00:42:56;589.60;1561.60
70151;DHT22;57517;43.562;19.540;2022-07-23T00:45:23;589.60;1561.60
70151;DHT22;57517;43.562;19.540;2022-07-23T00:47:49;589.40;1510.40
70151;DHT22;57517;43.562;19.540;2022-07-23T00:50:15;589.00;1561.60
70151;DHT22;57517;43.562;19.540;2022-07-23T00:52:41;588.80;1587.20
70151;DHT22;57517;43.562;19.540;2022-07-23T00:55:09;564.00;1612.80
70151;DHT22;57517;43.562;19.540;2022-07-23T00:57:35;563.70;1638.40
70151;DHT22;57517;43.562;19.540;2022-07-23T01:00:02;563.60;1664.00
70151;DHT22;57517;43.562;19.540;2022-07-23T01:02:28;563.70;1638.40
70151;DHT22;57517;43.562;19.540;2022-07-23T01:04:54;563.70;1664.00
70151;DHT22;57517;43.562;19.540;2022-07-23T01:07:21;563.60;1689.60
70151;DHT22;57517;43.562;19.540;2022-07-23T01:09:47;563.70;1638.40
70151;DHT22;57517;43.562;19.540;2022-07-23T01:12:14;563.50;1689.60
70151;DHT22;57517;43.562;19.540;2022-07-23T01:14:40;563.60;1664.00
70151;DHT22;57517;43.562;19.540;2022-07-23T01:17:05;563.70;1664.00
70151;DHT22;57517;43.562;19.540;2022-07-23T01:19:31;563.80;1689.60
70151;DHT22;57517;43.562;19.540;2022-07-23T01:21:58;563.50;1664.00
70151;DHT22;57517;43.562;19.540;2022-07-23T01:24:26;563.30;1689.60
70151;DHT22;57517;43.562;19.540;2022-07-23T01:26:53;563.60;1664.00
70151;DHT22;57517;43.562;19.540;2022-07-23T01:29:18;563.30;1689.60
70151;DHT22;57517;43.562;19.540;2022-07-23T01:31:46;563.20;1689.60
70151;DHT22;57517;43.562;19.540;2022-07-23T01:34:12;563.30;1689.60
70151;DHT22;57517;43.562;19.540;2022-07-23T01:36:38;538.50;1689.60
70151;DHT22;57517;43.562;19.540;2022-07-23T01:39:05;563.20;1689.60
70151;DHT22;57517;43.562;19.540;2022-07-23T01:41:31;563.50;1689.60
70151;DHT22;57517;43.562;19.540;2022-07-23T01:43:57;563.70;1664.00
70151;DHT22;57517;43.562;19.540;2022-07-23T01:46:23;563.90;1664.00
70151;DHT22;57517;43.562;19.540;2022-07-23T01:48:50;563.90;1638.40
70151;DHT22;57517;43.562;19.540;2022-07-23T01:51:16;564.00;1664.00
70151;DHT22;57517;43.562;19.540;2022-07-23T01:53:41;564.00;1638.40
70151;DHT22;57517;43.562;19.540;2022-07-23T01:56:07;563.90;1638.40
70151;DHT22;57517;43.562;19.540;2022-07-23T01:58:33;563.50;1664.00
70151;DHT22;57517;43.562;19.540;2022-07-23T02:00:59;538.50;1689.60
70151;DHT22;57517;43.562;19.540;2022-07-23T02:03:26;538.20;1715.20
70151;DHT22;57517;43.562;19.540;2022-07-23T02:05:52;538.50;1689.60
70151;DHT22;57517;43.562;19.540;2022-07-23T02:08:18;563.20;1715.20
70151;DHT22;57517;43.562;19.540;2022-07-23T02:10:44;563.20;1715.20
70151;DHT22;57517;43.562;19.540;2022-07-23T02:13:09;538.40;1689.60
70151;DHT22;57517;43.562;19.540;2022-07-23T02:15:35;538.50;1689.60
70151;DHT22;57517;43.562;19.540;2022-07-23T02:18:01;563.40;1715.20
70151;DHT22;57517;43.562;19.540;2022-07-23T02:20:27;563.50;1689.60
70151;DHT22;57517;43.562;19.540;2022-07-23T02:22:53;563.80;1664.00
70151;DHT22;57517;43.562;19.540;2022-07-23T02:25:19;563.90;1638.40
70151;DHT22;57517;43.562;19.540;2022-07-23T02:27:45;563.80;1638.40
70151;DHT22;57517;43.562;19.540;2022-07-23T02:30:11;563.40;1664.00
70151;DHT22;57517;43.562;19.540;2022-07-23T02:32:37;538.30;1689.60
70151;DHT22;57517;43.562;19.540;2022-07-23T02:35:05;537.90;1740.80
70151;DHT22;57517;43.562;19.540;2022-07-23T02:37:32;537.60;1766.40
70151;DHT22;57517;43.562;19.540;2022-07-23T02:39:57;537.80;1766.40
70151;DHT22;57517;43.562;19.540;2022-07-23T02:42:23;538.10;1740.80
70151;DHT22;57517;43.562;19.540;2022-07-23T02:44:50;538.10;1740.80
70151;DHT22;57517;43.562;19.540;2022-07-23T02:47:16;538.20;1740.80
70151;DHT22;57517;43.562;19.540;2022-07-23T02:49:42;538.30;1715.20
70151;DHT22;57517;43.562;19.540;2022-07-23T02:52:08;538.30;1715.20
70151;DHT22;57517;43.562;19.540;2022-07-23T02:54:36;563.20;1715.20
70151;DHT22;57517;43.562;19.540;2022-07-23T02:57:02;538.30;1715.20
70151;DHT22;57517;43.562;19.540;2022-07-23T02:59:28;537.90;1740.80
70151;DHT22;57517;43.562;19.540;2022-07-23T03:01:54;537.60;1766.40
70151;DHT22;57517;43.562;19.540;2022-07-23T03:04:20;537.60;1766.40
70151;DHT22;57517;43.562;19.540;2022-07-23T03:06:46;537.70;1766.40
70151;DHT22;57517;43.562;19.540;2022-07-23T03:09:12;537.90;1740.80
70151;DHT22;57517;43.562;19.540;2022-07-23T03:11:37;537.90;1740.80
70151;DHT22;57517;43.562;19.540;2022-07-23T03:14:03;537.80;1766.40
70151;DHT22;57517;43.562;19.540;2022-07-23T03:16:29;537.70;1766.40
70151;DHT22;57517;43.562;19.540;2022-07-23T03:18:55;537.80;1766.40
70151;DHT22;57517;43.562;19.540;2022-07-23T03:21:21;537.80;1766.40
70151;DHT22;57517;43.562;19.540;2022-07-23T03:23:46;538.10;1740.80
70151;DHT22;57517;43.562;19.540;2022-07-23T03:26:12;538.00;1740.80
70151;DHT22;57517;43.562;19.540;2022-07-23T03:28:38;537.70;1792.00
70151;DHT22;57517;43.562;19.540;2022-07-23T03:31:04;512.60;1817.60
70151;DHT22;57517;43.562;19.540;2022-07-23T03:33:29;512.60;1817.60
70151;DHT22;57517;43.562;19.540;2022-07-23T03:35:55;512.70;1792.00
70151;DHT22;57517;43.562;19.540;2022-07-23T03:38:21;512.60;1792.00
70151;DHT22;57517;43.562;19.540;2022-07-23T03:40:47;512.80;1792.00
70151;DHT22;57517;43.562;19.540;2022-07-23T03:43:12;512.40;1817.60
70151;DHT22;57517;43.562;19.540;2022-07-23T03:45:38;512.30;1843.20
70151;DHT22;57517;43.562;19.540;2022-07-23T03:48:04;512.40;1817.60
70151;DHT22;57517;43.562;19.540;2022-07-23T03:50:30;512.30;1817.60
70151;DHT22;57517;43.562;19.540;2022-07-23T03:52:56;512.40;1817.60
70151;DHT22;57517;43.562;19.540;2022-07-23T03:55:22;512.50;1817.60
70151;DHT22;57517;43.562;19.540;2022-07-23T03:57:47;512.50;1817.60
70151;DHT22;57517;43.562;19.540;2022-07-23T04:00:14;512.70;1792.00
70151;DHT22;57517;43.562;19.540;2022-07-23T04:02:40;512.30;1843.20
70151;DHT22;57517;43.562;19.540;2022-07-23T04:05:06;512.30;1843.20
70151;DHT22;57517;43.562;19.540;2022-07-23T04:07:32;512.40;1817.60
70151;DHT22;57517;43.562;19.540;2022-07-23T04:09:58;512.60;1817.60
70151;DHT22;57517;43.562;19.540;2022-07-23T04:12:24;537.60;1817.60
70151;DHT22;57517;43.562;19.540;2022-07-23T04:14:50;537.80;1766.40
70151;DHT22;57517;43.562;19.540;2022-07-23T04:17:16;538.00;1766.40
70151;DHT22;57517;43.562;19.540;2022-07-23T04:19:42;538.20;1766.40
70151;DHT22;57517;43.562;19.540;2022-07-23T04:22:12;538.30;1740.80
70151;DHT22;57517;43.562;19.540;2022-07-23T04:24:39;538.50;1715.20
70151;DHT22;57517;43.562;19.540;2022-07-23T04:27:05;563.20;1740.80
70151;DHT22;57517;43.562;19.540;2022-07-23T04:29:31;538.50;1715.20
70151;DHT22;57517;43.562;19.540;2022-07-23T04:31:57;538.40;1715.20
70151;DHT22;57517;43.562;19.540;2022-07-23T04:34:23;563.20;1740.80
70151;DHT22;57517;43.562;19.540;2022-07-23T04:36:52;563.40;1715.20
70151;DHT22;57517;43.562;19.540;2022-07-23T04:39:18;563.40;1715.20
70151;DHT22;57517;43.562;19.540;2022-07-23T04:41:44;563.40;1689.60
70151;DHT22;57517;43.562;19.540;2022-07-23T04:44:10;563.60;1715.20
70151;DHT22;57517;43.562;19.540;2022-07-23T04:46:36;564.00;1689.60
70151;DHT22;57517;43.562;19.540;2022-07-23T04:49:01;589.50;1587.20
70151;DHT22;57517;43.562;19.540;2022-07-23T04:51:27;615.10;1484.80
70151;DHT22;57517;43.562;19.540;2022-07-23T04:53:55;665.60;1408.00
70151;DHT22;57517;43.562;19.540;2022-07-23T04:56:20;691.40;1305.60
70151;DHT22;57517;43.562;19.540;2022-07-23T04:58:46;692.10;1203.20
70151;DHT22;57517;43.562;19.540;2022-07-23T05:01:12;717.50;1177.60
70151;DHT22;57517;43.562;19.540;2022-07-23T05:03:38;742.80;1152.00
70151;DHT22;57517;43.562;19.540;2022-07-23T05:06:04;742.90;1100.80
70151;DHT22;57517;43.562;19.540;2022-07-23T05:08:30;743.00;1100.80
70151;DHT22;57517;43.562;19.540;2022-07-23T05:10:56;743.30;1100.80
70151;DHT22;57517;43.562;19.540;2022-07-23T05:13:22;743.20;1100.80
70151;DHT22;57517;43.562;19.540;2022-07-23T05:15:48;768.20;1075.20
70151;DHT22;57517;43.562;19.540;2022-07-23T05:18:14;768.50;1049.60
70151;DHT22;57517;43.562;19.540;2022-07-23T05:20:40;793.60;1049.60
70151;DHT22;57517;43.562;19.540;2022-07-23T05:23:06;794.50;998.40
70151;DHT22;57517;43.562;19.540;2022-07-23T05:25:32;794.40;998.40
70151;DHT22;57517;43.562;19.540;2022-07-23T05:27:58;819.60;972.80
70151;DHT22;57517;43.562;19.540;2022-07-23T05:30:23;819.60;947.20
70151;DHT22;57517;43.562;19.540;2022-07-23T05:32:49;820.00;947.20
70151;DHT22;57517;43.562;19.540;2022-07-23T05:35:15;845.00;921.60
70151;DHT22;57517;43.562;19.540;2022-07-23T05:37:41;845.30;896.00
70151;DHT22;57517;43.562;19.540;2022-07-23T05:40:09;870.40;870.40
70151;DHT22;57517;43.562;19.540;2022-07-23T05:42:36;871.10;819.20
70151;DHT22;57517;43.562;19.540;2022-07-23T05:45:03;871.30;819.20
70151;DHT22;57517;43.562;19.540;2022-07-23T05:47:38;871.10;819.20
70151;DHT22;57517;43.562;19.540;2022-07-23T05:50:04;896.10;793.60
70151;DHT22;57517;43.562;19.540;2022-07-23T05:52:30;896.40;793.60
70151;DHT22;57517;43.562;19.540;2022-07-23T05:54:56;896.60;768.00
70151;DHT22;57517;43.562;19.540;2022-07-23T05:57:21;896.70;768.00
70151;DHT22;57517;43.562;19.540;2022-07-23T05:59:47;922.40;742.40
70151;DHT22;57517;43.562;19.540;2022-07-23T06:02:13;947.20;742.40
70151;DHT22;57517;43.562;19.540;2022-07-23T13:39:31;743.10;1254.40
70151;DHT22;57517;43.562;19.540;2022-07-23T13:41:57;819.20;870.40
70151;DHT22;57517;43.562;19.540;2022-07-23T13:44:23;844.90;844.80
70151;DHT22;57517;43.562;19.540;2022-07-23T13:46:49;845.70;742.40
70151;DHT22;57517;43.562;19.540;2022-07-23T13:49:15;870.80;793.60
70151;DHT22;57517;43.562;19.540;2022-07-23T13:51:41;871.00;870.40
70151;DHT22;57517;43.562;19.540;2022-07-23T13:54:07;871.30;742.40
70151;DHT22;57517;43.562;19.540;2022-07-23T13:56:33;896.40;691.20
70151;DHT22;57517;43.562;19.540;2022-07-23T13:58:59;896.90;665.60
70151;DHT22;57517;43.562;19.540;2022-07-23T14:01:25;921.80;665.60
70151;DHT22;57517;43.562;19.540;2022-07-23T14:03:51;922.10;640.00
70151;DHT22;57517;43.562;19.540;2022-07-23T14:06:16;922.30;640.00
70151;DHT22;57517;43.562;19.540;2022-07-23T14:08:44;922.40;640.00
70151;DHT22;57517;43.562;19.540;2022-07-23T14:11:10;922.50;640.00
70151;DHT22;57517;43.562;19.540;2022-07-23T14:13:36;947.20;640.00
70151;DHT22;57517;43.562;19.540;2022-07-23T14:16:02;947.40;742.40
70151;DHT22;57517;43.562;19.540;2022-07-23T14:18:27;922.30;793.60
70151;DHT22;57517;43.562;19.540;2022-07-23T14:20:53;922.10;691.20
70151;DHT22;57517;43.562;19.540;2022-07-23T14:23:19;922.10;819.20
70151;DHT22;57517;43.562;19.540;2022-07-23T14:25:45;922.00;665.60
70151;DHT22;57517;43.562;19.540;2022-07-23T14:28:11;922.20;691.20
70151;DHT22;57517;43.562;19.540;2022-07-23T14:30:37;922.10;768.00
70151;DHT22;57517;43.562;19.540;2022-07-23T14:33:03;922.00;742.40
70151;DHT22;57517;43.562;19.540;2022-07-23T14:35:29;921.90;768.00
70151;DHT22;57517;43.562;19.540;2022-07-23T14:37:54;922.10;665.60
70151;DHT22;57517;43.562;19.540;2022-07-23T14:40:22;921.90;691.20
70151;DHT22;57517;43.562;19.540;2022-07-23T14:42:48;921.80;768.00
70151;DHT22;57517;43.562;19.540;2022-07-23T14:45:13;921.70;768.00
70151;DHT22;57517;43.562;19.540;2022-07-23T14:47:39;896.70;742.40
70151;DHT22;57517;43.562;19.540;2022-07-23T14:50:05;896.80;742.40
70151;DHT22;57517;43.562;19.540;2022-07-23T14:52:31;896.80;768.00
70151;DHT22;57517;43.562;19.540;2022-07-23T14:54:57;896.70;793.60
70151;DHT22;57517;43.562;19.540;2022-07-23T14:57:23;896.70;793.60
70151;DHT22;57517;43.562;19.540;2022-07-23T14:59:49;896.70;742.40
70151;DHT22;57517;43.562;19.540;2022-07-23T15:02:15;921.70;691.20
70151;DHT22;57517;43.562;19.540;2022-07-23T15:04:40;921.70;716.80
70151;DHT22;57517;43.562;19.540;2022-07-23T15:07:06;921.70;742.40
70151;DHT22;57517;43.562;19.540;2022-07-23T15:09:32;921.70;742.40
70151;DHT22;57517;43.562;19.540;2022-07-23T15:11:58;921.80;716.80
70151;DHT22;57517;43.562;19.540;2022-07-23T15:14:24;921.80;716.80
70151;DHT22;57517;43.562;19.540;2022-07-23T15:16:50;922.00;691.20
70151;DHT22;57517;43.562;19.540;2022-07-23T15:19:16;922.00;716.80
70151;DHT22;57517;43.562;19.540;2022-07-23T15:21:42;922.00;691.20
70151;DHT22;57517;43.562;19.540;2022-07-23T15:24:08;922.10;716.80
70151;DHT22;57517;43.562;19.540;2022-07-23T15:26:33;922.00;716.80
70151;DHT22;57517;43.562;19.540;2022-07-23T15:28:59;921.80;819.20
70151;DHT22;57517;43.562;19.540;2022-07-23T15:31:28;896.90;819.20
70151;DHT22;57517;43.562;19.540;2022-07-23T15:33:53;896.70;844.80
70151;DHT22;57517;43.562;19.540;2022-07-23T15:36:20;896.50;819.20
70151;DHT22;57517;43.562;19.540;2022-07-23T15:38:47;896.30;819.20
70151;DHT22;57517;43.562;19.540;2022-07-23T15:41:13;896.20;844.80
70151;DHT22;57517;43.562;19.540;2022-07-23T15:43:39;896.00;870.40
70151;DHT22;57517;43.562;19.540;2022-07-23T15:46:05;896.00;896.00
70151;DHT22;57517;43.562;19.540;2022-07-23T15:48:33;896.20;896.00
70151;DHT22;57517;43.562;19.540;2022-07-23T15:51:00;896.10;921.60
70151;DHT22;57517;43.562;19.540;2022-07-23T15:53:26;871.20;921.60
70151;DHT22;57517;43.562;19.540;2022-07-23T15:55:52;871.20;921.60
70151;DHT22;57517;43.562;19.540;2022-07-23T15:58:18;871.10;947.20
70151;DHT22;57517;43.562;19.540;2022-07-23T16:00:44;871.20;947.20
70151;DHT22;57517;43.562;19.540;2022-07-23T16:03:10;871.20;947.20
70151;DHT22;57517;43.562;19.540;2022-07-23T16:05:36;871.20;972.80
70151;DHT22;57517;43.562;19.540;2022-07-23T16:08:03;871.10;972.80
70151;DHT22;57517;43.562;19.540;2022-07-23T16:10:30;871.10;972.80
70151;DHT22;57517;43.562;19.540;2022-07-23T16:12:56;871.30;870.40
70151;DHT22;57517;43.562;19.540;2022-07-23T16:15:22;896.10;870.40
70151;DHT22;57517;43.562;19.540;2022-07-23T16:17:48;896.20;870.40
70151;DHT22;57517;43.562;19.540;2022-07-23T16:20:14;896.20;844.80
70151;DHT22;57517;43.562;19.540;2022-07-23T16:22:40;896.20;870.40
70151;DHT22;57517;43.562;19.540;2022-07-23T16:25:07;896.10;870.40
70151;DHT22;57517;43.562;19.540;2022-07-23T16:27:39;896.10;870.40
70151;DHT22;57517;43.562;19.540;2022-07-23T16:30:07;896.10;870.40
70151;DHT22;57517;43.562;19.540;2022-07-23T16:32:33;896.10;870.40
70151;DHT22;57517;43.562;19.540;2022-07-23T16:34:59;896.00;896.00
70151;DHT22;57517;43.562;19.540;2022-07-23T16:37:25;896.00;896.00
70151;DHT22;57517;43.562;19.540;2022-07-23T16:39:51;871.30;921.60
70151;DHT22;57517;43.562;19.540;2022-07-23T16:42:17;871.30;921.60
70151;DHT22;57517;43.562;19.540;2022-07-23T16:44:43;871.20;896.00
70151;DHT22;57517;43.562;19.540;2022-07-23T16:47:09;871.10;896.00
70151;DHT22;57517;43.562;19.540;2022-07-23T16:49:36;871.10;921.60
70151;DHT22;57517;43.562;19.540;2022-07-23T16:52:03;871.00;947.20
70151;DHT22;57517;43.562;19.540;2022-07-23T16:54:30;871.00;947.20
70151;DHT22;57517;43.562;19.540;2022-07-23T16:56:56;870.90;921.60
70151;DHT22;57517;43.562;19.540;2022-07-23T16:59:22;870.90;947.20
70151;DHT22;57517;43.562;19.540;2022-07-23T17:01:48;870.90;921.60
70151;DHT22;57517;43.562;19.540;2022-07-23T17:04:14;870.90;947.20
70151;DHT22;57517;43.562;19.540;2022-07-23T17:06:40;870.80;972.80
70151;DHT22;57517;43.562;19.540;2022-07-23T17:09:06;870.70;972.80
70151;DHT22;57517;43.562;19.540;2022-07-23T17:11:31;870.70;972.80
70151;DHT22;57517;43.562;19.540;2022-07-23T17:13:57;870.70;972.80
70151;DHT22;57517;43.562;19.540;2022-07-23T17:16:23;870.70;947.20
70151;DHT22;57517;43.562;19.540;2022-07-23T17:18:49;870.70;998.40
70151;DHT22;57517;43.562;19.540;2022-07-23T17:21:15;870.40;998.40
70151;DHT22;57517;43.562;19.540;2022-07-23T17:23:40;845.70;998.40
70151;DHT22;57517;43.562;19.540;2022-07-23T17:26:06;845.70;1049.60
70151;DHT22;57517;43.562;19.540;2022-07-23T17:28:32;845.60;998.40
70151;DHT22;57517;43.562;19.540;2022-07-23T17:30:58;845.50;1024.00
70151;DHT22;57517;43.562;19.540;2022-07-23T17:33:24;845.50;1024.00
70151;DHT22;57517;43.562;19.540;2022-07-23T17:35:49;845.30;1049.60
70151;DHT22;57517;43.562;19.540;2022-07-23T17:38:20;845.20;1049.60
70151;DHT22;57517;43.562;19.540;2022-07-23T17:40:47;845.30;1024.00
70151;DHT22;57517;43.562;19.540;2022-07-23T17:43:13;845.20;1024.00
70151;DHT22;57517;43.562;19.540;2022-07-23T17:45:39;845.10;1024.00
70151;DHT22;57517;43.562;19.540;2022-07-23T17:48:05;845.20;1049.60
70151;DHT22;57517;43.562;19.540;2022-07-23T17:50:31;845.10;1049.60
70151;DHT22;57517;43.562;19.540;2022-07-23T17:52:57;845.10;1075.20
70151;DHT22;57517;43.562;19.540;2022-07-23T17:55:24;845.10;1100.80
70151;DHT22;57517;43.562;19.540;2022-07-23T17:57:51;845.10;1049.60
70151;DHT22;57517;43.562;19.540;2022-07-23T18:00:24;845.20;1049.60
70151;DHT22;57517;43.562;19.540;2022-07-23T18:02:50;845.00;1024.00
70151;DHT22;57517;43.562;19.540;2022-07-23T18:05:16;844.90;1075.20
70151;DHT22;57517;43.562;19.540;2022-07-23T18:07:42;844.80;1049.60
70151;DHT22;57517;43.562;19.540;2022-07-23T18:10:08;844.80;1049.60
70151;DHT22;57517;43.562;19.540;2022-07-23T18:12:34;820.10;1049.60
70151;DHT22;57517;43.562;19.540;2022-07-23T18:15:00;820.10;1049.60
70151;DHT22;57517;43.562;19.540;2022-07-23T18:17:26;820.10;1075.20
70151;DHT22;57517;43.562;19.540;2022-07-23T18:19:51;819.90;1049.60
70151;DHT22;57517;43.562;19.540;2022-07-23T18:22:17;819.80;1049.60
70151;DHT22;57517;43.562;19.540;2022-07-23T18:24:43;819.90;1075.20
70151;DHT22;57517;43.562;19.540;2022-07-23T18:27:09;819.90;1075.20
70151;DHT22;57517;43.562;19.540;2022-07-23T18:29:35;819.90;1075.20
70151;DHT22;57517;43.562;19.540;2022-07-23T18:32:01;819.90;1075.20
70151;DHT22;57517;43.562;19.540;2022-07-23T18:34:28;819.90;1049.60
70151;DHT22;57517;43.562;19.540;2022-07-23T18:36:54;819.80;1075.20
70151;DHT22;57517;43.562;19.540;2022-07-23T18:39:20;819.80;1075.20
70151;DHT22;57517;43.562;19.540;2022-07-23T18:41:46;819.60;1075.20
70151;DHT22;57517;43.562;19.540;2022-07-23T18:44:12;819.40;1100.80
70151;DHT22;57517;43.562;19.540;2022-07-23T18:46:40;819.40;1100.80
70151;DHT22;57517;43.562;19.540;2022-07-23T18:49:06;819.40;1100.80
70151;DHT22;57517;43.562;19.540;2022-07-23T18:51:32;819.30;1126.40
70151;DHT22;57517;43.562;19.540;2022-07-23T18:53:59;819.30;1100.80
70151;DHT22;57517;43.562;19.540;2022-07-23T18:56:24;819.30;1100.80
70151;DHT22;57517;43.562;19.540;2022-07-23T18:58:50;819.30;1100.80
70151;DHT22;57517;43.562;19.540;2022-07-23T19:01:16;819.20;1100.80
70151;DHT22;57517;43.562;19.540;2022-07-23T19:03:42;819.20;1100.80
70151;DHT22;57517;43.562;19.540;2022-07-23T19:06:08;819.20;1100.80
70151;DHT22;57517;43.562;19.540;2022-07-23T19:08:34;794.50;1100.80
70151;DHT22;57517;43.562;19.540;2022-07-23T19:11:00;794.50;1126.40
70151;DHT22;57517;43.562;19.540;2022-07-23T19:13:26;794.50;1126.40
70151;DHT22;57517;43.562;19.540;2022-07-23T19:15:52;794.50;1152.00
70151;DHT22;57517;43.562;19.540;2022-07-23T19:18:18;794.50;1152.00
70151;DHT22;57517;43.562;19.540;2022-07-23T19:20:44;794.50;1152.00
70151;DHT22;57517;43.562;19.540;2022-07-23T19:23:10;794.50;1152.00
70151;DHT22;57517;43.562;19.540;2022-07-23T19:25:36;794.50;1126.40
70151;DHT22;57517;43.562;19.540;2022-07-23T19:28:02;794.50;1126.40
70151;DHT22;57517;43.562;19.540;2022-07-23T19:30:28;819.20;1152.00
70151;DHT22;57517;43.562;19.540;2022-07-23T19:32:54;819.20;1126.40
70151;DHT22;57517;43.562;19.540;2022-07-23T19:35:20;794.50;1126.40
70151;DHT22;57517;43.562;19.540;2022-07-23T19:37:46;819.20;1126.40
70151;DHT22;57517;43.562;19.540;2022-07-23T19:40:12;794.50;1126.40
70151;DHT22;57517;43.562;19.540;2022-07-23T19:42:38;794.40;1100.80
70151;DHT22;57517;43.562;19.540;2022-07-23T19:45:06;794.30;1100.80
70151;DHT22;57517;43.562;19.540;2022-07-23T19:47:32;794.30;1126.40
70151;DHT22;57517;43.562;19.540;2022-07-23T19:49:57;794.30;1100.80
70151;DHT22;57517;43.562;19.540;2022-07-23T19:52:24;794.30;1126.40
70151;DHT22;57517;43.562;19.540;2022-07-23T19:54:50;794.00;1152.00
70151;DHT22;57517;43.562;19.540;2022-07-23T19:57:16;794.00;1152.00
70151;DHT22;57517;43.562;19.540;2022-07-23T19:59:42;794.00;1152.00
70151;DHT22;57517;43.562;19.540;2022-07-23T20:02:08;794.10;1126.40
70151;DHT22;57517;43.562;19.540;2022-07-23T20:04:34;794.10;1152.00
70151;DHT22;57517;43.562;19.540;2022-07-23T20:06:59;794.00;1177.60
70151;DHT22;57517;43.562;19.540;2022-07-23T20:09:25;793.80;1177.60
70151;DHT22;57517;43.562;19.540;2022-07-23T20:11:51;793.70;1203.20
70151;DHT22;57517;43.562;19.540;2022-07-23T20:14:17;793.70;1228.80
70151;DHT22;57517;43.562;19.540;2022-07-23T20:16:43;793.80;1203.20
70151;DHT22;57517;43.562;19.540;2022-07-23T20:19:11;793.80;1228.80
70151;DHT22;57517;43.562;19.540;2022-07-23T20:21:37;793.80;1228.80
70151;DHT22;57517;43.562;19.540;2022-07-23T20:24:10;793.80;1254.40
70151;DHT22;57517;43.562;19.540;2022-07-23T20:26:38;793.70;1203.20
70151;DHT22;57517;43.562;19.540;2022-07-23T20:29:04;793.70;1228.80
70151;DHT22;57517;43.562;19.540;2022-07-23T20:31:29;793.70;1228.80
70151;DHT22;57517;43.562;19.540;2022-07-23T20:33:55;793.60;1228.80
70151;DHT22;57517;43.562;19.540;2022-07-23T20:36:21;768.90;1203.20
70151;DHT22;57517;43.562;19.540;2022-07-23T20:38:47;768.70;1203.20
70151;DHT22;57517;43.562;19.540;2022-07-23T20:41:13;768.30;1228.80
70151;DHT22;57517;43.562;19.540;2022-07-23T20:43:38;768.20;1254.40
70151;DHT22;57517;43.562;19.540;2022-07-23T20:46:05;768.20;1280.00
70151;DHT22;57517;43.562;19.540;2022-07-23T20:48:31;768.30;1254.40
70151;DHT22;57517;43.562;19.540;2022-07-23T20:50:56;743.30;1280.00
70151;DHT22;57517;43.562;19.540;2022-07-23T20:53:22;743.30;1280.00
70151;DHT22;57517;43.562;19.540;2022-07-23T20:55:48;743.30;1280.00
70151;DHT22;57517;43.562;19.540;2022-07-23T20:58:14;743.30;1280.00
70151;DHT22;57517;43.562;19.540;2022-07-23T21:00:40;743.30;1305.60
70151;DHT22;57517;43.562;19.540;2022-07-23T21:03:06;743.20;1305.60
70151;DHT22;57517;43.562;19.540;2022-07-23T21:05:32;743.20;1305.60
70151;DHT22;57517;43.562;19.540;2022-07-23T21:07:57;743.10;1305.60
70151;DHT22;57517;43.562;19.540;2022-07-23T21:10:23;743.10;1305.60
70151;DHT22;57517;43.562;19.540;2022-07-23T21:12:49;743.00;1331.20
70151;DHT22;57517;43.562;19.540;2022-07-23T21:15:15;742.90;1331.20
70151;DHT22;57517;43.562;19.540;2022-07-23T21:17:41;742.80;1331.20
70151;DHT22;57517;43.562;19.540;2022-07-23T21:20:07;742.80;1305.60
70151;DHT22;57517;43.562;19.540;2022-07-23T21:22:33;742.80;1331.20
70151;DHT22;57517;43.562;19.540;2022-07-23T21:24:59;742.80;1331.20
70151;DHT22;57517;43.562;19.540;2022-07-23T21:27:24;742.40;1356.80
70151;DHT22;57517;43.562;19.540;2022-07-23T21:29:50;717.60;1331.20
70151;DHT22;57517;43.562;19.540;2022-07-23T21:32:16;717.50;1356.80
70151;DHT22;57517;43.562;19.540;2022-07-23T21:34:42;717.30;1356.80
70151;DHT22;57517;43.562;19.540;2022-07-23T21:37:08;717.40;1382.40
70151;DHT22;57517;43.562;19.540;2022-07-23T21:39:33;717.30;1382.40
70151;DHT22;57517;43.562;19.540;2022-07-23T21:41:59;717.00;1382.40
70151;DHT22;57517;43.562;19.540;2022-07-23T21:44:25;692.10;1382.40
70151;DHT22;57517;43.562;19.540;2022-07-23T21:46:51;692.10;1382.40
70151;DHT22;57517;43.562;19.540;2022-07-23T21:49:17;692.10;1382.40
70151;DHT22;57517;43.562;19.540;2022-07-23T21:51:42;692.10;1382.40
70151;DHT22;57517;43.562;19.540;2022-07-23T21:54:10;692.00;1408.00
70151;DHT22;57517;43.562;19.540;2022-07-23T21:56:36;691.90;1408.00
70151;DHT22;57517;43.562;19.540;2022-07-23T21:59:02;692.00;1408.00
70151;DHT22;57517;43.562;19.540;2022-07-23T22:01:28;692.10;1408.00
70151;DHT22;57517;43.562;19.540;2022-07-23T22:03:54;716.80;1408.00
70151;DHT22;57517;43.562;19.540;2022-07-23T22:06:20;716.90;1382.40